www.cux-wetter.de
Wetterdaten: Samstag, 10.10.2009
Datum Zeit Temp. A. Feuchte A. Luftdruck Regen Wind Richtung Richtung Sonnenschein Solar Taupunkt Windchill Windben
10.10.2009 00:00 7,3 C 80 % 1018,5 hPa 0,0 l/m 12,6 km/h (3 Bft) SO 140 0 min 0 W/m 4,1 C 3,1 C 12,6 km/h (3 Bft)
10.10.2009 00:05 7,3 C 80 % 1018,5 hPa 0,0 l/m 9,2 km/h (2 Bft) S-SO 160 0 min 0 W/m 4,1 C 5,1 C 9,2 km/h (2 Bft)
10.10.2009 00:10 7,2 C 80 % 1018,5 hPa 0,0 l/m 11,8 km/h (2 Bft) S-SO 160 0 min 0 W/m 4,0 C 3,4 C 11,8 km/h (2 Bft)
10.10.2009 00:15 7,2 C 80 % 1017,5 hPa 0,0 l/m 14,2 km/h (3 Bft) SO 140 0 min 0 W/m 4,0 C 2,1 C 14,2 km/h (3 Bft)
10.10.2009 00:20 7,2 C 80 % 1017,5 hPa 0,0 l/m 13,3 km/h (3 Bft) SO 135 0 min 0 W/m 4,0 C 2,6 C 13,3 km/h (3 Bft)
10.10.2009 00:25 7,2 C 80 % 1017,5 hPa 0,0 l/m 12,0 km/h (2 Bft) S-SO 150 0 min 0 W/m 4,0 C 3,3 C 12,0 km/h (2 Bft)
10.10.2009 00:30 7,2 C 81 % 1017,5 hPa 0,0 l/m 11,8 km/h (2 Bft) SO 135 0 min 0 W/m 4,2 C 3,4 C 11,8 km/h (2 Bft)
10.10.2009 00:35 7,2 C 81 % 1017,5 hPa 0,0 l/m 14,6 km/h (3 Bft) S-SO 165 0 min 0 W/m 4,2 C 1,9 C 14,6 km/h (3 Bft)
10.10.2009 00:40 7,2 C 81 % 1017,5 hPa 0,0 l/m 11,4 km/h (2 Bft) S-SO 160 0 min 0 W/m 4,2 C 3,6 C 11,4 km/h (2 Bft)
10.10.2009 00:45 7,1 C 80 % 1017,5 hPa 0,0 l/m 15,0 km/h (3 Bft) SO 135 0 min 0 W/m 3,9 C 1,6 C 15,0 km/h (3 Bft)
10.10.2009 00:50 7,2 C 80 % 1017,5 hPa 0,0 l/m 10,5 km/h (2 Bft) SO 140 0 min 0 W/m 4,0 C 4,2 C 10,5 km/h (2 Bft)
10.10.2009 00:55 7,2 C 80 % 1017,5 hPa 0,0 l/m 13,5 km/h (3 Bft) S 170 0 min 0 W/m 4,0 C 2,5 C 13,5 km/h (3 Bft)
10.10.2009 01:00 7,2 C 80 % 1017,5 hPa 0,0 l/m 20,3 km/h (4 Bft) S-SO 155 0 min 0 W/m 4,0 C -0,4 C 20,3 km/h (4 Bft)
10.10.2009 01:05 7,3 C 80 % 1017,5 hPa 0,0 l/m 11,8 km/h (2 Bft) SO 145 0 min 0 W/m 4,1 C 3,5 C 11,8 km/h (2 Bft)
10.10.2009 01:10 7,2 C 80 % 1017,5 hPa 0,0 l/m 10,2 km/h (2 Bft) O-SO 115 0 min 0 W/m 4,0 C 4,4 C 10,2 km/h (2 Bft)
10.10.2009 01:15 7,2 C 80 % 1017,5 hPa 0,0 l/m 14,3 km/h (3 Bft) SO 125 0 min 0 W/m 4,0 C 2,1 C 14,3 km/h (3 Bft)
10.10.2009 01:20 7,2 C 80 % 1016,5 hPa 0,0 l/m 12,4 km/h (2 Bft) SO 135 0 min 0 W/m 4,0 C 3,1 C 12,4 km/h (2 Bft)
10.10.2009 01:25 7,2 C 80 % 1016,5 hPa 0,0 l/m 14,2 km/h (3 Bft) S-SO 155 0 min 0 W/m 4,0 C 2,1 C 14,2 km/h (3 Bft)
10.10.2009 01:30 7,2 C 80 % 1016,5 hPa 0,0 l/m 14,4 km/h (3 Bft) S-SO 155 0 min 0 W/m 4,0 C 2,0 C 14,4 km/h (3 Bft)
10.10.2009 01:35 7,2 C 80 % 1016,5 hPa 0,0 l/m 15,5 km/h (3 Bft) SO 135 0 min 0 W/m 4,0 C 1,5 C 15,5 km/h (3 Bft)
10.10.2009 01:40 7,2 C 81 % 1016,5 hPa 0,0 l/m 15,1 km/h (3 Bft) O-SO 115 0 min 0 W/m 4,2 C 1,7 C 15,1 km/h (3 Bft)
10.10.2009 01:45 7,2 C 81 % 1016,5 hPa 0,0 l/m 11,5 km/h (2 Bft) SO 135 0 min 0 W/m 4,2 C 3,6 C 11,5 km/h (2 Bft)
10.10.2009 01:50 7,2 C 81 % 1016,5 hPa 0,0 l/m 17,8 km/h (3 Bft) SO 135 0 min 0 W/m 4,2 C 0,5 C 17,8 km/h (3 Bft)
10.10.2009 01:55 7,2 C 81 % 1016,5 hPa 0,0 l/m 14,1 km/h (3 Bft) SO 135 0 min 0 W/m 4,2 C 2,2 C 14,1 km/h (3 Bft)
10.10.2009 02:00 7,1 C 81 % 1016,5 hPa 0,0 l/m 11,3 km/h (2 Bft) S 180 0 min 0 W/m 4,1 C 3,6 C 11,3 km/h (2 Bft)
10.10.2009 02:05 7,2 C 81 % 1016,5 hPa 0,0 l/m 13,5 km/h (3 Bft) SO 145 0 min 0 W/m 4,2 C 2,5 C 13,5 km/h (3 Bft)
10.10.2009 02:10 7,2 C 81 % 1016,5 hPa 0,0 l/m 13,3 km/h (3 Bft) S-SO 150 0 min 0 W/m 4,2 C 2,6 C 13,3 km/h (3 Bft)
10.10.2009 02:15 7,2 C 81 % 1016,5 hPa 0,0 l/m 17,3 km/h (3 Bft) S-SO 150 0 min 0 W/m 4,2 C 0,7 C 17,3 km/h (3 Bft)
10.10.2009 02:20 7,2 C 80 % 1016,5 hPa 0,0 l/m 14,0 km/h (3 Bft) SO 145 0 min 0 W/m 4,0 C 2,2 C 14,0 km/h (3 Bft)
10.10.2009 02:25 7,2 C 80 % 1016,5 hPa 0,0 l/m 11,6 km/h (2 Bft) SO 125 0 min 0 W/m 4,0 C 3,5 C 11,6 km/h (2 Bft)
10.10.2009 02:30 7,3 C 80 % 1016,5 hPa 0,0 l/m 14,4 km/h (3 Bft) O-SO 105 0 min 0 W/m 4,1 C 2,1 C 14,4 km/h (3 Bft)
10.10.2009 02:35 7,2 C 80 % 1015,5 hPa 0,0 l/m 11,7 km/h (2 Bft) SO 130 0 min 0 W/m 4,0 C 3,5 C 11,7 km/h (2 Bft)
10.10.2009 02:40 7,2 C 80 % 1015,5 hPa 0,0 l/m 14,0 km/h (3 Bft) O-SO 115 0 min 0 W/m 4,0 C 2,2 C 14,0 km/h (3 Bft)
10.10.2009 02:45 7,2 C 80 % 1015,5 hPa 0,0 l/m 17,5 km/h (3 Bft) SO 125 0 min 0 W/m 4,0 C 0,6 C 17,5 km/h (3 Bft)
10.10.2009 02:50 7,2 C 80 % 1015,5 hPa 0,0 l/m 22,8 km/h (4 Bft) SO 135 0 min 0 W/m 4,0 C -1,3 C 22,8 km/h (4 Bft)
10.10.2009 02:55 7,2 C 80 % 1015,5 hPa 0,0 l/m 11,3 km/h (2 Bft) S-SO 150 0 min 0 W/m 4,0 C 3,7 C 11,3 km/h (2 Bft)
10.10.2009 03:00 7,2 C 80 % 1015,5 hPa 0,0 l/m 18,1 km/h (3 Bft) SO 125 0 min 0 W/m 4,0 C 0,4 C 18,1 km/h (3 Bft)
10.10.2009 03:05 7,1 C 80 % 1015,5 hPa 0,0 l/m 18,8 km/h (3 Bft) SO 145 0 min 0 W/m 3,9 C -0,0 C 18,8 km/h (3 Bft)
10.10.2009 03:10 7,0 C 81 % 1015,5 hPa 0,0 l/m 15,9 km/h (3 Bft) SO 130 0 min 0 W/m 4,0 C 1,1 C 15,9 km/h (3 Bft)
10.10.2009 03:15 6,9 C 80 % 1015,5 hPa 0,0 l/m 18,1 km/h (3 Bft) SO 130 0 min 0 W/m 3,7 C 0,0 C 18,1 km/h (3 Bft)
10.10.2009 03:20 6,9 C 81 % 1015,5 hPa 0,0 l/m 13,8 km/h (3 Bft) SO 135 0 min 0 W/m 3,9 C 2,0 C 13,8 km/h (3 Bft)
10.10.2009 03:25 6,9 C 81 % 1015,5 hPa 0,0 l/m 14,5 km/h (3 Bft) S-SO 165 0 min 0 W/m 3,9 C 1,6 C 14,5 km/h (3 Bft)
10.10.2009 03:30 6,9 C 81 % 1015,5 hPa 0,0 l/m 17,3 km/h (3 Bft) SO 140 0 min 0 W/m 3,9 C 0,3 C 17,3 km/h (3 Bft)
10.10.2009 03:35 7,0 C 81 % 1014,5 hPa 0,0 l/m 15,7 km/h (3 Bft) S-SO 150 0 min 0 W/m 4,0 C 1,2 C 15,7 km/h (3 Bft)
10.10.2009 03:40 7,1 C 81 % 1014,5 hPa 0,0 l/m 15,5 km/h (3 Bft) SO 145 0 min 0 W/m 4,1 C 1,4 C 15,5 km/h (3 Bft)
10.10.2009 03:45 7,2 C 81 % 1014,5 hPa 0,0 l/m 16,0 km/h (3 Bft) S-SO 150 0 min 0 W/m 4,2 C 1,3 C 16,0 km/h (3 Bft)
10.10.2009 03:50 7,2 C 80 % 1014,5 hPa 0,0 l/m 25,1 km/h (4 Bft) SO 145 0 min 0 W/m 4,0 C -2,0 C 25,1 km/h (4 Bft)
10.10.2009 03:55 7,2 C 80 % 1014,5 hPa 0,0 l/m 23,3 km/h (4 Bft) SO 145 0 min 0 W/m 4,0 C -1,4 C 23,3 km/h (4 Bft)
10.10.2009 04:00 7,2 C 79 % 1014,5 hPa 0,0 l/m 18,2 km/h (3 Bft) SO 135 0 min 0 W/m 3,8 C 0,4 C 18,2 km/h (3 Bft)
10.10.2009 04:05 7,2 C 79 % 1014,5 hPa 0,0 l/m 20,1 km/h (4 Bft) SO 145 0 min 0 W/m 3,8 C -0,4 C 20,1 km/h (4 Bft)
10.10.2009 04:10 7,2 C 79 % 1014,5 hPa 0,0 l/m 20,3 km/h (4 Bft) S-SO 155 0 min 0 W/m 3,8 C -0,4 C 20,3 km/h (4 Bft)
10.10.2009 04:15 7,2 C 78 % 1014,5 hPa 0,0 l/m 12,3 km/h (2 Bft) S-SO 165 0 min 0 W/m 3,6 C 3,1 C 12,3 km/h (2 Bft)
10.10.2009 04:20 7,2 C 78 % 1014,5 hPa 0,0 l/m 20,0 km/h (4 Bft) SO 145 0 min 0 W/m 3,6 C -0,3 C 20,0 km/h (4 Bft)
10.10.2009 04:25 7,2 C 78 % 1014,5 hPa 0,0 l/m 15,7 km/h (3 Bft) SO 145 0 min 0 W/m 3,6 C 1,4 C 15,7 km/h (3 Bft)
10.10.2009 04:30 7,1 C 79 % 1014,5 hPa 0,0 l/m 18,2 km/h (3 Bft) S-SO 155 0 min 0 W/m 3,7 C 0,2 C 18,2 km/h (3 Bft)
10.10.2009 04:35 7,0 C 79 % 1014,5 hPa 0,0 l/m 13,1 km/h (3 Bft) S-SO 155 0 min 0 W/m 3,6 C 2,5 C 13,1 km/h (3 Bft)
10.10.2009 04:40 7,0 C 79 % 1014,5 hPa 0,0 l/m 3,6 km/h (1 Bft) S-SO 155 0 min 0 W/m 3,6 C 7,0 C 3,6 km/h (1 Bft)
10.10.2009 04:45 7,0 C 79 % 1014,5 hPa 0,0 l/m 10,6 km/h (2 Bft) SO 145 0 min 0 W/m 3,6 C 3,9 C 10,6 km/h (2 Bft)
10.10.2009 04:50 6,9 C 80 % 1014,5 hPa 0,0 l/m 15,5 km/h (3 Bft) SO 130 0 min 0 W/m 3,7 C 1,1 C 15,5 km/h (3 Bft)
10.10.2009 04:55 6,9 C 80 % 1013,5 hPa 0,0 l/m 12,8 km/h (3 Bft) S-SO 150 0 min 0 W/m 3,7 C 2,5 C 12,8 km/h (3 Bft)
10.10.2009 05:00 6,9 C 80 % 1013,5 hPa 0,0 l/m 12,1 km/h (2 Bft) O-SO 120 0 min 0 W/m 3,7 C 2,9 C 12,1 km/h (2 Bft)
10.10.2009 05:05 6,9 C 80 % 1013,5 hPa 0,0 l/m 15,1 km/h (3 Bft) S-SO 165 0 min 0 W/m 3,7 C 1,3 C 15,1 km/h (3 Bft)
10.10.2009 05:10 6,9 C 80 % 1013,5 hPa 0,0 l/m 11,5 km/h (2 Bft) S-SO 150 0 min 0 W/m 3,7 C 3,2 C 11,5 km/h (2 Bft)
10.10.2009 05:15 6,9 C 80 % 1013,5 hPa 0,0 l/m 17,9 km/h (3 Bft) SO 125 0 min 0 W/m 3,7 C 0,1 C 17,9 km/h (3 Bft)
10.10.2009 05:20 6,9 C 80 % 1013,5 hPa 0,0 l/m 17,8 km/h (3 Bft) S-SO 160 0 min 0 W/m 3,7 C 0,1 C 17,8 km/h (3 Bft)
10.10.2009 05:25 6,8 C 80 % 1013,5 hPa 0,0 l/m 18,0 km/h (3 Bft) S-SO 150 0 min 0 W/m 3,6 C -0,1 C 18,0 km/h (3 Bft)
10.10.2009 05:30 6,9 C 80 % 1013,5 hPa 0,0 l/m 16,1 km/h (3 Bft) SO 145 0 min 0 W/m 3,7 C 0,9 C 16,1 km/h (3 Bft)
10.10.2009 05:35 6,8 C 80 % 1013,5 hPa 0,0 l/m 16,1 km/h (3 Bft) SO 145 0 min 0 W/m 3,6 C 0,7 C 16,1 km/h (3 Bft)
10.10.2009 05:40 6,9 C 81 % 1013,5 hPa 0,0 l/m 20,5 km/h (4 Bft) SO 140 0 min 0 W/m 3,9 C -0,9 C 20,5 km/h (4 Bft)
10.10.2009 05:45 7,0 C 81 % 1013,5 hPa 0,0 l/m 24,6 km/h (4 Bft) SO 145 0 min 0 W/m 4,0 C -2,1 C 24,6 km/h (4 Bft)
10.10.2009 05:50 7,0 C 81 % 1012,5 hPa 0,0 l/m 21,1 km/h (4 Bft) SO 140 0 min 0 W/m 4,0 C -1,0 C 21,1 km/h (4 Bft)
10.10.2009 05:55 7,1 C 81 % 1012,5 hPa 0,0 l/m 28,1 km/h (5 Bft) SO 140 0 min 0 W/m 4,1 C -3,0 C 28,1 km/h (5 Bft)
10.10.2009 06:00 7,1 C 81 % 1012,5 hPa 0,0 l/m 17,8 km/h (3 Bft) S-SO 150 0 min 0 W/m 4,1 C 0,4 C 17,8 km/h (3 Bft)
10.10.2009 06:05 7,2 C 81 % 1012,5 hPa 0,0 l/m 17,3 km/h (3 Bft) SO 135 0 min 0 W/m 4,2 C 0,7 C 17,3 km/h (3 Bft)
10.10.2009 06:10 7,2 C 81 % 1012,5 hPa 0,0 l/m 19,8 km/h (3 Bft) S-SO 150 0 min 0 W/m 4,2 C -0,3 C 19,8 km/h (3 Bft)
10.10.2009 06:15 7,2 C 81 % 1012,5 hPa 0,0 l/m 31,2 km/h (5 Bft) SO 145 0 min 0 W/m 4,2 C -3,6 C 31,2 km/h (5 Bft)
10.10.2009 06:20 7,2 C 81 % 1012,5 hPa 0,0 l/m 20,5 km/h (4 Bft) SO 135 0 min 0 W/m 4,2 C -0,5 C 20,5 km/h (4 Bft)
10.10.2009 06:25 7,2 C 81 % 1012,5 hPa 0,0 l/m 23,3 km/h (4 Bft) SO 140 0 min 0 W/m 4,2 C -1,4 C 23,3 km/h (4 Bft)
10.10.2009 06:30 7,2 C 81 % 1012,5 hPa 0,0 l/m 13,6 km/h (3 Bft) S-SO 150 0 min 0 W/m 4,2 C 2,4 C 13,6 km/h (3 Bft)
10.10.2009 06:35 7,2 C 81 % 1012,5 hPa 0,0 l/m 24,2 km/h (4 Bft) SO 140 0 min 0 W/m 4,2 C -1,7 C 24,2 km/h (4 Bft)
10.10.2009 06:40 7,3 C 81 % 1012,5 hPa 0,0 l/m 19,3 km/h (3 Bft) S-SO 160 0 min 0 W/m 4,3 C 0,1 C 19,3 km/h (3 Bft)
10.10.2009 06:45 7,3 C 81 % 1012,5 hPa 0,0 l/m 26,6 km/h (4 Bft) S-SO 150 0 min 0 W/m 4,3 C -2,3 C 26,6 km/h (4 Bft)
10.10.2009 06:50 7,4 C 81 % 1012,5 hPa 0,0 l/m 18,6 km/h (3 Bft) SO 135 0 min 0 W/m 4,4 C 0,5 C 18,6 km/h (3 Bft)
10.10.2009 06:55 7,4 C 81 % 1012,5 hPa 0,0 l/m 24,2 km/h (4 Bft) SO 145 0 min 0 W/m 4,4 C -1,5 C 24,2 km/h (4 Bft)
10.10.2009 07:00 7,4 C 81 % 1012,5 hPa 0,0 l/m 21,8 km/h (4 Bft) S-SO 150 0 min 0 W/m 4,4 C -0,7 C 21,8 km/h (4 Bft)
10.10.2009 07:05 7,5 C 81 % 1012,5 hPa 0,0 l/m 14,6 km/h (3 Bft) S-SO 150 0 min 0 W/m 4,5 C 2,3 C 14,6 km/h (3 Bft)
10.10.2009 07:10 7,5 C 81 % 1012,5 hPa 0,0 l/m 22,8 km/h (4 Bft) S-SO 155 0 min 0 W/m 4,5 C -0,9 C 22,8 km/h (4 Bft)
10.10.2009 07:15 7,4 C 81 % 1012,5 hPa 0,0 l/m 24,0 km/h (4 Bft) S-SO 155 0 min 0 W/m 4,4 C -1,4 C 24,0 km/h (4 Bft)
10.10.2009 07:20 7,4 C 81 % 1011,5 hPa 0,0 l/m 11,5 km/h (2 Bft) S-SO 160 0 min 0 W/m 4,4 C 3,8 C 11,5 km/h (2 Bft)
10.10.2009 07:25 7,4 C 81 % 1011,5 hPa 0,0 l/m 22,9 km/h (4 Bft) SO 145 0 min 0 W/m 4,4 C -1,1 C 22,9 km/h (4 Bft)
10.10.2009 07:30 7,4 C 81 % 1011,5 hPa 0,0 l/m 19,6 km/h (3 Bft) S-SO 150 0 min 0 W/m 4,4 C 0,1 C 19,6 km/h (3 Bft)
10.10.2009 07:35 7,4 C 81 % 1011,5 hPa 0,0 l/m 17,3 km/h (3 Bft) S-SO 150 0 min 0 W/m 4,4 C 1,0 C 17,3 km/h (3 Bft)
10.10.2009 07:40 7,4 C 81 % 1011,5 hPa 0,0 l/m 24,5 km/h (4 Bft) SO 140 0 min 0 W/m 4,4 C -1,5 C 24,5 km/h (4 Bft)
10.10.2009 07:45 7,4 C 81 % 1011,5 hPa 0,0 l/m 18,0 km/h (3 Bft) SO 145 0 min 0 W/m 4,4 C 0,7 C 18,0 km/h (3 Bft)
10.10.2009 07:50 7,4 C 81 % 1011,5 hPa 0,0 l/m 18,1 km/h (3 Bft) SO 140 0 min 0 W/m 4,4 C 0,6 C 18,1 km/h (3 Bft)
10.10.2009 07:55 7,4 C 81 % 1011,5 hPa 0,0 l/m 20,1 km/h (4 Bft) SO 145 0 min 0 W/m 4,4 C -0,1 C 20,1 km/h (4 Bft)
10.10.2009 08:00 7,4 C 81 % 1011,5 hPa 0,0 l/m 23,5 km/h (4 Bft) S-SO 150 0 min 0 W/m 4,4 C -1,2 C 23,5 km/h (4 Bft)
10.10.2009 08:05 7,5 C 81 % 1011,5 hPa 0,0 l/m 18,3 km/h (3 Bft) SO 140 0 min 0 W/m 4,5 C 0,7 C 18,3 km/h (3 Bft)
10.10.2009 08:10 7,5 C 81 % 1011,5 hPa 0,0 l/m 30,4 km/h (5 Bft) SO 135 0 min 0 W/m 4,5 C -3,0 C 30,4 km/h (5 Bft)
10.10.2009 08:15 7,5 C 81 % 1011,5 hPa 0,0 l/m 21,9 km/h (4 Bft) SO 130 0 min 0 W/m 4,5 C -0,6 C 21,9 km/h (4 Bft)
10.10.2009 08:20 7,5 C 81 % 1011,5 hPa 0,0 l/m 19,7 km/h (3 Bft) O-SO 105 0 min 0 W/m 4,5 C 0,2 C 19,7 km/h (3 Bft)
10.10.2009 08:25 7,6 C 81 % 1011,5 hPa 0,0 l/m 20,8 km/h (4 Bft) SO 135 0 min 0 W/m 4,6 C -0,1 C 20,8 km/h (4 Bft)
10.10.2009 08:30 7,5 C 81 % 1011,5 hPa 0,0 l/m 24,5 km/h (4 Bft) SO 130 0 min 0 W/m 4,5 C -1,4 C 24,5 km/h (4 Bft)
10.10.2009 08:35 7,5 C 81 % 1011,5 hPa 0,0 l/m 23,6 km/h (4 Bft) SO 135 0 min 0 W/m 4,5 C -1,1 C 23,6 km/h (4 Bft)
10.10.2009 08:40 7,6 C 81 % 1010,5 hPa 0,0 l/m 21,0 km/h (4 Bft) SO 140 0 min 0 W/m 4,6 C -0,2 C 21,0 km/h (4 Bft)
10.10.2009 08:45 8,2 C 84 % 1010,5 hPa 0,0 l/m 24,9 km/h (4 Bft) SO 135 0 min 0 W/m 5,7 C -0,6 C 24,9 km/h (4 Bft)
10.10.2009 08:50 8,8 C 84 % 1010,5 hPa 0,0 l/m 21,0 km/h (4 Bft) O-SO 115 0 min 0 W/m 6,2 C 1,4 C 21,0 km/h (4 Bft)
10.10.2009 08:55 9,2 C 80 % 1010,5 hPa 0,0 l/m 16,3 km/h (3 Bft) SO 125 0 min 0 W/m 5,9 C 3,6 C 16,3 km/h (3 Bft)
10.10.2009 09:00 8,9 C 78 % 1010,5 hPa 0,0 l/m 25,3 km/h (4 Bft) S-SO 155 0 min 0 W/m 5,3 C 0,3 C 25,3 km/h (4 Bft)
10.10.2009 09:05 8,8 C 79 % 1010,5 hPa 0,0 l/m 23,7 km/h (4 Bft) S-SO 150 0 min 0 W/m 5,4 C 0,6 C 23,7 km/h (4 Bft)
10.10.2009 09:10 8,3 C 80 % 1010,5 hPa 0,0 l/m 16,1 km/h (3 Bft) SO 140 0 min 0 W/m 5,1 C 2,6 C 16,1 km/h (3 Bft)
10.10.2009 09:15 7,9 C 81 % 1010,5 hPa 0,0 l/m 23,8 km/h (4 Bft) S-SO 150 0 min 0 W/m 4,8 C -0,7 C 23,8 km/h (4 Bft)
10.10.2009 09:20 7,8 C 81 % 1010,5 hPa 0,0 l/m 18,0 km/h (3 Bft) S-SO 160 0 min 0 W/m 4,7 C 1,2 C 18,0 km/h (3 Bft)
10.10.2009 09:25 7,6 C 83 % 1010,5 hPa 0,0 l/m 29,4 km/h (5 Bft) SO 145 0 min 0 W/m 4,9 C -2,6 C 29,4 km/h (5 Bft)
10.10.2009 09:30 7,5 C 83 % 1010,5 hPa 0,0 l/m 25,1 km/h (4 Bft) SO 145 0 min 0 W/m 4,8 C -1,6 C 25,1 km/h (4 Bft)
10.10.2009 09:35 7,4 C 83 % 1010,5 hPa 0,0 l/m 17,3 km/h (3 Bft) S-SO 150 0 min 0 W/m 4,7 C 1,0 C 17,3 km/h (3 Bft)
10.10.2009 09:40 7,4 C 83 % 1010,5 hPa 0,0 l/m 18,4 km/h (3 Bft) SO 140 0 min 0 W/m 4,7 C 0,5 C 18,4 km/h (3 Bft)
10.10.2009 09:45 7,5 C 84 % 1010,5 hPa 0,0 l/m 26,2 km/h (4 Bft) S-SO 160 0 min 0 W/m 5,0 C -1,9 C 26,2 km/h (4 Bft)
10.10.2009 09:50 7,5 C 84 % 1010,5 hPa 0,0 l/m 23,8 km/h (4 Bft) S-SO 160 0 min 0 W/m 5,0 C -1,2 C 23,8 km/h (4 Bft)
10.10.2009 09:55 7,5 C 84 % 1010,5 hPa 0,0 l/m 27,8 km/h (5 Bft) SO 130 0 min 0 W/m 5,0 C -2,3 C 27,8 km/h (5 Bft)
10.10.2009 10:00 7,4 C 83 % 1010,5 hPa 0,0 l/m 17,8 km/h (3 Bft) SO 135 0 min 0 W/m 4,7 C 0,8 C 17,8 km/h (3 Bft)
10.10.2009 10:05 7,5 C 84 % 1010,5 hPa 0,0 l/m 20,4 km/h (4 Bft) SO 140 0 min 0 W/m 5,0 C -0,1 C 20,4 km/h (4 Bft)
10.10.2009 10:10 7,5 C 84 % 1010,5 hPa 0,0 l/m 30,1 km/h (5 Bft) S-SO 150 0 min 0 W/m 5,0 C -2,9 C 30,1 km/h (5 Bft)
10.10.2009 10:15 7,5 C 84 % 1010,5 hPa 0,0 l/m 21,1 km/h (4 Bft) SO 140 0 min 0 W/m 5,0 C -0,3 C 21,1 km/h (4 Bft)
10.10.2009 10:20 7,5 C 84 % 1010,5 hPa 0,0 l/m 23,1 km/h (4 Bft) S 170 0 min 0 W/m 5,0 C -1,0 C 23,1 km/h (4 Bft)
10.10.2009 10:25 7,6 C 84 % 1010,5 hPa 0,0 l/m 21,2 km/h (4 Bft) SO 140 0 min 0 W/m 5,1 C -0,2 C 21,2 km/h (4 Bft)
10.10.2009 10:29 7,6 C 84 % 1010,5 hPa 0,0 l/m 23,9 km/h (4 Bft) S-SO 150 0 min 0 W/m 5,1 C -1,1 C 23,9 km/h (4 Bft)
10.10.2009 10:35 7,7 C 84 % 1010,5 hPa 0,0 l/m 20,1 km/h (4 Bft) S-SO 155 0 min 0 W/m 5,2 C 0,3 C 20,1 km/h (4 Bft)
10.10.2009 10:40 7,9 C 84 % 1010,5 hPa 0,0 l/m 21,8 km/h (4 Bft) SO 145 0 min 0 W/m 5,4 C -0,0 C 21,8 km/h (4 Bft)
10.10.2009 10:45 7,9 C 84 % 1010,5 hPa 0,0 l/m 30,2 km/h (5 Bft) SO 140 0 min 0 W/m 5,4 C -2,3 C 30,2 km/h (5 Bft)
10.10.2009 10:50 8,0 C 84 % 1010,5 hPa 0,0 l/m 20,6 km/h (4 Bft) S-SO 155 0 min 0 W/m 5,5 C 0,5 C 20,6 km/h (4 Bft)
10.10.2009 10:55 8,0 C 83 % 1010,5 hPa 0,0 l/m 17,8 km/h (3 Bft) S 170 0 min 0 W/m 5,3 C 1,5 C 17,8 km/h (3 Bft)
10.10.2009 11:00 8,0 C 83 % 1010,5 hPa 0,0 l/m 18,3 km/h (3 Bft) S-SO 160 0 min 0 W/m 5,3 C 1,3 C 18,3 km/h (3 Bft)
10.10.2009 11:05 8,0 C 83 % 1010,5 hPa 0,0 l/m 14,1 km/h (3 Bft) S-SO 155 0 min 0 W/m 5,3 C 3,1 C 14,1 km/h (3 Bft)
10.10.2009 11:10 8,0 C 83 % 1010,5 hPa 0,0 l/m 21,4 km/h (4 Bft) SO 135 0 min 0 W/m 5,3 C 0,2 C 21,4 km/h (4 Bft)
10.10.2009 11:15 8,0 C 83 % 1010,5 hPa 0,0 l/m 14,2 km/h (3 Bft) S-SO 155 0 min 0 W/m 5,3 C 3,1 C 14,2 km/h (3 Bft)
10.10.2009 11:20 8,1 C 83 % 1010,5 hPa 0,0 l/m 23,1 km/h (4 Bft) SO 130 0 min 0 W/m 5,4 C -0,2 C 23,1 km/h (4 Bft)
10.10.2009 11:25 8,1 C 83 % 1010,5 hPa 0,0 l/m 27,5 km/h (5 Bft) SO 145 0 min 0 W/m 5,4 C -1,4 C 27,5 km/h (5 Bft)
10.10.2009 11:30 8,0 C 83 % 1010,5 hPa 0,0 l/m 22,8 km/h (4 Bft) SO 140 0 min 0 W/m 5,3 C -0,2 C 22,8 km/h (4 Bft)
10.10.2009 11:35 8,0 C 83 % 1010,5 hPa 0,0 l/m 18,1 km/h (3 Bft) SO 140 0 min 0 W/m 5,3 C 1,4 C 18,1 km/h (3 Bft)
10.10.2009 11:40 7,9 C 84 % 1010,5 hPa 0,0 l/m 20,9 km/h (4 Bft) SO 140 0 min 0 W/m 5,4 C 0,3 C 20,9 km/h (4 Bft)
10.10.2009 11:45 7,8 C 84 % 1010,5 hPa 0,0 l/m 24,3 km/h (4 Bft) SO 135 0 min 0 W/m 5,3 C -0,9 C 24,3 km/h (4 Bft)
10.10.2009 11:50 7,7 C 84 % 1010,5 hPa 0,0 l/m 24,3 km/h (4 Bft) SO 135 0 min 0 W/m 5,2 C -1,1 C 24,3 km/h (4 Bft)
10.10.2009 11:55 7,6 C 85 % 1010,5 hPa 0,0 l/m 19,9 km/h (4 Bft) SO 145 0 min 0 W/m 5,2 C 0,2 C 19,9 km/h (4 Bft)
10.10.2009 12:00 7,6 C 86 % 1010,5 hPa 0,3 l/m 16,5 km/h (3 Bft) S-SO 165 0 min 0 W/m 5,4 C 1,6 C 16,5 km/h (3 Bft)
10.10.2009 12:05 7,6 C 86 % 1009,5 hPa 0,0 l/m 19,4 km/h (3 Bft) SO 140 0 min 0 W/m 5,4 C 0,4 C 19,4 km/h (3 Bft)
10.10.2009 12:10 7,6 C 86 % 1009,5 hPa 0,0 l/m 19,2 km/h (3 Bft) SO 140 0 min 0 W/m 5,4 C 0,5 C 19,2 km/h (3 Bft)
10.10.2009 12:15 7,6 C 87 % 1009,5 hPa 0,0 l/m 17,6 km/h (3 Bft) SO 145 0 min 0 W/m 5,6 C 1,1 C 17,6 km/h (3 Bft)
10.10.2009 12:20 7,6 C 87 % 1009,5 hPa 0,0 l/m 17,6 km/h (3 Bft) SO 145 0 min 0 W/m 5,6 C 1,1 C 17,6 km/h (3 Bft)
10.10.2009 12:25 7,6 C 88 % 1009,5 hPa 0,3 l/m 15,6 km/h (3 Bft) S-SO 155 0 min 0 W/m 5,7 C 2,0 C 15,6 km/h (3 Bft)
10.10.2009 12:30 7,6 C 88 % 1009,5 hPa 0,0 l/m 16,6 km/h (3 Bft) SO 140 0 min 0 W/m 5,7 C 1,5 C 16,6 km/h (3 Bft)
10.10.2009 12:35 7,6 C 88 % 1009,5 hPa 0,0 l/m 22,8 km/h (4 Bft) SO 145 0 min 0 W/m 5,7 C -0,8 C 22,8 km/h (4 Bft)
10.10.2009 12:39 7,6 C 88 % 1009,5 hPa 0,3 l/m 16,8 km/h (3 Bft) SO 140 0 min 0 W/m 5,7 C 1,4 C 16,8 km/h (3 Bft)
10.10.2009 12:45 7,6 C 88 % 1009,5 hPa 0,0 l/m 24,3 km/h (4 Bft) SO 125 0 min 0 W/m 5,7 C -1,2 C 24,3 km/h (4 Bft)
10.10.2009 12:50 7,6 C 89 % 1009,5 hPa 0,0 l/m 23,8 km/h (4 Bft) SO 145 0 min 0 W/m 5,9 C -1,1 C 23,8 km/h (4 Bft)
10.10.2009 12:55 7,5 C 89 % 1009,5 hPa 0,0 l/m 23,5 km/h (4 Bft) S-SO 150 0 min 0 W/m 5,8 C -1,1 C 23,5 km/h (4 Bft)
10.10.2009 13:00 7,5 C 89 % 1009,5 hPa 0,3 l/m 16,5 km/h (3 Bft) SO 140 0 min 0 W/m 5,8 C 1,4 C 16,5 km/h (3 Bft)
10.10.2009 13:05 7,6 C 89 % 1009,5 hPa 0,0 l/m 16,9 km/h (3 Bft) S-SO 150 0 min 0 W/m 5,9 C 1,4 C 16,9 km/h (3 Bft)
10.10.2009 13:10 7,6 C 90 % 1009,5 hPa 0,0 l/m 13,2 km/h (3 Bft) SO 145 0 min 0 W/m 6,1 C 3,1 C 13,2 km/h (3 Bft)
10.10.2009 13:15 7,6 C 90 % 1009,5 hPa 0,0 l/m 18,3 km/h (3 Bft) SO 140 0 min 0 W/m 6,1 C 0,8 C 18,3 km/h (3 Bft)
10.10.2009 13:20 7,5 C 90 % 1009,5 hPa 0,0 l/m 11,0 km/h (2 Bft) SO 135 0 min 0 W/m 6,0 C 4,2 C 11,0 km/h (2 Bft)
10.10.2009 13:25 7,6 C 90 % 1009,5 hPa 0,3 l/m 14,5 km/h (3 Bft) S-SO 150 0 min 0 W/m 6,1 C 2,5 C 14,5 km/h (3 Bft)
10.10.2009 13:30 7,6 C 90 % 1009,5 hPa 0,0 l/m 9,6 km/h (2 Bft) S-SO 155 0 min 0 W/m 6,1 C 5,2 C 9,6 km/h (2 Bft)
10.10.2009 13:35 7,6 C 90 % 1009,5 hPa 0,0 l/m 11,0 km/h (2 Bft) S-SO 160 0 min 0 W/m 6,1 C 4,3 C 11,0 km/h (2 Bft)
10.10.2009 13:40 7,6 C 90 % 1009,5 hPa 0,3 l/m 13,9 km/h (3 Bft) SO 145 0 min 0 W/m 6,1 C 2,8 C 13,9 km/h (3 Bft)
10.10.2009 13:45 7,6 C 90 % 1009,5 hPa 0,0 l/m 13,6 km/h (3 Bft) SO 135 0 min 0 W/m 6,1 C 2,9 C 13,6 km/h (3 Bft)
10.10.2009 13:50 7,7 C 91 % 1009,5 hPa 0,3 l/m 21,5 km/h (4 Bft) SO 135 0 min 0 W/m 6,3 C -0,2 C 21,5 km/h (4 Bft)
10.10.2009 13:55 7,6 C 91 % 1009,5 hPa 0,0 l/m 18,4 km/h (3 Bft) S-SO 150 0 min 0 W/m 6,2 C 0,8 C 18,4 km/h (3 Bft)
10.10.2009 13:59 7,6 C 91 % 1009,5 hPa 0,0 l/m 18,4 km/h (3 Bft) S-SO 150 0 min 0 W/m 6,2 C 0,8 C 18,4 km/h (3 Bft)
10.10.2009 14:05 7,6 C 91 % 1009,5 hPa 0,0 l/m 17,0 km/h (3 Bft) S-SO 155 0 min 0 W/m 6,2 C 1,3 C 17,0 km/h (3 Bft)
10.10.2009 14:10 7,6 C 91 % 1009,5 hPa 0,0 l/m 14,3 km/h (3 Bft) S 170 0 min 0 W/m 6,2 C 2,6 C 14,3 km/h (3 Bft)
10.10.2009 14:14 7,6 C 91 % 1009,5 hPa 0,3 l/m 9,4 km/h (2 Bft) SO 130 0 min 0 W/m 6,2 C 5,3 C 9,4 km/h (2 Bft)
10.10.2009 14:20 7,6 C 91 % 1009,5 hPa 0,0 l/m 9,4 km/h (2 Bft) SO 130 0 min 0 W/m 6,2 C 5,3 C 9,4 km/h (2 Bft)
10.10.2009 14:25 7,7 C 91 % 1009,5 hPa 0,0 l/m 13,1 km/h (3 Bft) SO 145 0 min 0 W/m 6,3 C 3,3 C 13,1 km/h (3 Bft)
10.10.2009 14:30 7,8 C 91 % 1009,5 hPa 0,0 l/m 11,5 km/h (2 Bft) SO 140 0 min 0 W/m 6,4 C 4,3 C 11,5 km/h (2 Bft)
10.10.2009 14:35 7,8 C 91 % 1009,5 hPa 0,0 l/m 15,3 km/h (3 Bft) SO 140 0 min 0 W/m 6,4 C 2,3 C 15,3 km/h (3 Bft)
10.10.2009 14:40 7,9 C 91 % 1009,5 hPa 0,0 l/m 13,3 km/h (3 Bft) SO 135 0 min 0 W/m 6,5 C 3,4 C 13,3 km/h (3 Bft)
10.10.2009 14:45 8,0 C 91 % 1009,5 hPa 0,3 l/m 17,2 km/h (3 Bft) SO 135 0 min 0 W/m 6,6 C 1,8 C 17,2 km/h (3 Bft)
10.10.2009 14:50 8,0 C 91 % 1009,5 hPa 0,0 l/m 13,6 km/h (3 Bft) SO 125 0 min 0 W/m 6,6 C 3,4 C 13,6 km/h (3 Bft)
10.10.2009 14:55 8,0 C 91 % 1009,5 hPa 0,0 l/m 13,6 km/h (3 Bft) SO 125 0 min 0 W/m 6,6 C 3,4 C 13,6 km/h (3 Bft)
10.10.2009 15:00 8,0 C 91 % 1009,5 hPa 0,0 l/m 13,0 km/h (3 Bft) O-SO 120 0 min 0 W/m 6,6 C 3,7 C 13,0 km/h (3 Bft)
10.10.2009 15:05 8,0 C 91 % 1009,5 hPa 0,0 l/m 9,6 km/h (2 Bft) S-SO 155 0 min 0 W/m 6,6 C 5,6 C 9,6 km/h (2 Bft)
10.10.2009 15:10 8,0 C 91 % 1009,5 hPa 0,0 l/m 12,1 km/h (2 Bft) SO 125 0 min 0 W/m 6,6 C 4,2 C 12,1 km/h (2 Bft)
10.10.2009 15:15 8,0 C 91 % 1009,5 hPa 0,0 l/m 8,6 km/h (2 Bft) O-SO 115 0 min 0 W/m 6,6 C 6,3 C 8,6 km/h (2 Bft)
10.10.2009 15:20 8,0 C 91 % 1009,5 hPa 0,0 l/m 11,3 km/h (2 Bft) S-SO 150 0 min 0 W/m 6,6 C 4,6 C 11,3 km/h (2 Bft)
10.10.2009 15:25 8,0 C 91 % 1009,5 hPa 0,0 l/m 12,6 km/h (3 Bft) S-SO 150 0 min 0 W/m 6,6 C 3,9 C 12,6 km/h (3 Bft)
10.10.2009 15:29 8,0 C 91 % 1009,5 hPa 0,3 l/m 1,3 km/h (1 Bft) SO 135 0 min 0 W/m 6,6 C 8,0 C 1,3 km/h (1 Bft)
10.10.2009 15:35 7,9 C 91 % 1009,5 hPa 0,0 l/m 1,3 km/h (1 Bft) SO 135 0 min 0 W/m 6,5 C 7,9 C 1,3 km/h (1 Bft)
10.10.2009 15:40 7,9 C 91 % 1009,5 hPa 0,0 l/m 13,8 km/h (3 Bft) S-SO 150 0 min 0 W/m 6,5 C 3,2 C 13,8 km/h (3 Bft)
10.10.2009 15:45 7,9 C 91 % 1009,5 hPa 0,0 l/m 11,0 km/h (2 Bft) SO 135 0 min 0 W/m 6,5 C 4,7 C 11,0 km/h (2 Bft)
10.10.2009 15:50 7,9 C 91 % 1009,5 hPa 0,0 l/m 10,0 km/h (2 Bft) SO 125 0 min 0 W/m 6,5 C 5,3 C 10,0 km/h (2 Bft)
10.10.2009 15:55 8,0 C 92 % 1009,5 hPa 0,0 l/m 12,0 km/h (2 Bft) O-SO 115 0 min 0 W/m 6,8 C 4,2 C 12,0 km/h (2 Bft)
10.10.2009 15:59 7,9 C 92 % 1009,5 hPa 0,0 l/m 13,2 km/h (3 Bft) O-SO 120 0 min 0 W/m 6,7 C 3,5 C 13,2 km/h (3 Bft)
10.10.2009 16:05 8,0 C 92 % 1009,5 hPa 0,0 l/m 15,1 km/h (3 Bft) SO 145 0 min 0 W/m 6,8 C 2,7 C 15,1 km/h (3 Bft)
10.10.2009 16:10 8,0 C 92 % 1009,5 hPa 0,0 l/m 13,4 km/h (3 Bft) SO 140 0 min 0 W/m 6,8 C 3,5 C 13,4 km/h (3 Bft)
10.10.2009 16:15 8,0 C 92 % 1009,5 hPa 0,0 l/m 11,1 km/h (2 Bft) SO 130 0 min 0 W/m 6,8 C 4,7 C 11,1 km/h (2 Bft)
10.10.2009 16:20 8,0 C 92 % 1009,5 hPa 0,0 l/m 9,2 km/h (2 Bft) S-SO 150 0 min 0 W/m 6,8 C 5,9 C 9,2 km/h (2 Bft)
10.10.2009 16:25 8,0 C 92 % 1009,5 hPa 0,0 l/m 10,3 km/h (2 Bft) S-SO 155 0 min 0 W/m 6,8 C 5,2 C 10,3 km/h (2 Bft)
10.10.2009 16:30 8,0 C 92 % 1009,5 hPa 0,0 l/m 8,2 km/h (2 Bft) SO 140 0 min 0 W/m 6,8 C 6,6 C 8,2 km/h (2 Bft)
10.10.2009 16:35 8,0 C 92 % 1009,5 hPa 0,0 l/m 8,2 km/h (2 Bft) SO 140 0 min 0 W/m 6,8 C 6,6 C 8,2 km/h (2 Bft)
10.10.2009 16:40 8,0 C 92 % 1009,5 hPa 0,0 l/m 11,3 km/h (2 Bft) SO 135 0 min 0 W/m 6,8 C 4,6 C 11,3 km/h (2 Bft)
10.10.2009 16:45 7,9 C 92 % 1009,5 hPa 0,3 l/m 12,0 km/h (2 Bft) S-SO 150 0 min 0 W/m 6,7 C 4,1 C 12,0 km/h (2 Bft)
10.10.2009 16:50 8,0 C 92 % 1009,5 hPa 0,0 l/m 12,0 km/h (2 Bft) S-SO 150 0 min 0 W/m 6,8 C 4,2 C 12,0 km/h (2 Bft)
10.10.2009 16:55 8,0 C 92 % 1009,5 hPa 0,0 l/m 7,4 km/h (2 Bft) SO 140 0 min 0 W/m 6,8 C 7,2 C 7,4 km/h (2 Bft)
10.10.2009 17:00 8,0 C 92 % 1009,5 hPa 0,0 l/m 7,4 km/h (2 Bft) SO 140 0 min 0 W/m 6,8 C 7,2 C 7,4 km/h (2 Bft)
10.10.2009 17:05 8,0 C 92 % 1009,5 hPa 0,0 l/m 9,4 km/h (2 Bft) SO 130 0 min 0 W/m 6,8 C 5,8 C 9,4 km/h (2 Bft)
10.10.2009 17:10 8,1 C 92 % 1009,5 hPa 0,0 l/m 10,1 km/h (2 Bft) SO 130 0 min 0 W/m 6,9 C 5,4 C 10,1 km/h (2 Bft)
10.10.2009 17:15 8,0 C 92 % 1009,5 hPa 0,0 l/m 10,1 km/h (2 Bft) SO 130 0 min 0 W/m 6,8 C 5,3 C 10,1 km/h (2 Bft)
10.10.2009 17:20 8,1 C 92 % 1009,5 hPa 0,0 l/m 10,1 km/h (2 Bft) SO 130 0 min 0 W/m 6,9 C 5,4 C 10,1 km/h (2 Bft)
10.10.2009 17:25 8,1 C 92 % 1009,5 hPa 0,0 l/m 7,7 km/h (2 Bft) SO 125 0 min 0 W/m 6,9 C 7,1 C 7,7 km/h (2 Bft)
10.10.2009 17:29 8,1 C 92 % 1009,5 hPa 0,0 l/m 2,1 km/h (1 Bft) O-SO 105 0 min 0 W/m 6,9 C 8,1 C 2,1 km/h (1 Bft)
10.10.2009 17:35 8,2 C 92 % 1009,5 hPa 0,0 l/m 1,3 km/h (1 Bft) O-SO 105 0 min 0 W/m 7,0 C 8,2 C 1,3 km/h (1 Bft)
10.10.2009 17:40 8,2 C 92 % 1009,5 hPa 0,0 l/m 8,6 km/h (2 Bft) SO 130 0 min 0 W/m 7,0 C 6,5 C 8,6 km/h (2 Bft)
10.10.2009 17:45 8,2 C 92 % 1009,5 hPa 0,0 l/m 10,3 km/h (2 Bft) SO 145 0 min 0 W/m 7,0 C 5,4 C 10,3 km/h (2 Bft)
10.10.2009 17:50 8,2 C 92 % 1009,5 hPa 0,0 l/m 10,6 km/h (2 Bft) SO 130 0 min 0 W/m 7,0 C 5,2 C 10,6 km/h (2 Bft)
10.10.2009 17:55 8,2 C 93 % 1009,5 hPa 0,0 l/m 10,6 km/h (2 Bft) SO 130 0 min 0 W/m 7,1 C 5,2 C 10,6 km/h (2 Bft)
10.10.2009 18:00 8,2 C 92 % 1009,5 hPa 0,0 l/m 2,5 km/h (1 Bft) SO 145 0 min 0 W/m 7,0 C 8,2 C 2,5 km/h (1 Bft)
10.10.2009 18:05 8,2 C 92 % 1009,5 hPa 0,0 l/m 6,4 km/h (2 Bft) O-SO 105 0 min 0 W/m 7,0 C 8,2 C 6,4 km/h (2 Bft)
10.10.2009 18:10 8,2 C 92 % 1009,5 hPa 0,0 l/m 6,5 km/h (2 Bft) O-SO 120 0 min 0 W/m 7,0 C 8,1 C 6,5 km/h (2 Bft)
10.10.2009 18:15 8,2 C 93 % 1009,5 hPa 0,0 l/m 12,1 km/h (2 Bft) SO 135 0 min 0 W/m 7,1 C 4,4 C 12,1 km/h (2 Bft)
10.10.2009 18:20 8,2 C 93 % 1009,5 hPa 0,0 l/m 2,5 km/h (1 Bft) SO 140 0 min 0 W/m 7,1 C 8,2 C 2,5 km/h (1 Bft)
10.10.2009 18:25 8,2 C 93 % 1009,5 hPa 0,0 l/m 2,2 km/h (1 Bft) O 80 0 min 0 W/m 7,1 C 8,2 C 2,2 km/h (1 Bft)
10.10.2009 18:30 8,2 C 93 % 1009,5 hPa 0,3 l/m 7,1 km/h (2 Bft) O-SO 110 0 min 0 W/m 7,1 C 7,7 C 7,1 km/h (2 Bft)
10.10.2009 18:35 8,3 C 93 % 1009,5 hPa 0,0 l/m 10,1 km/h (2 Bft) O-SO 115 0 min 0 W/m 7,2 C 5,7 C 10,1 km/h (2 Bft)
10.10.2009 18:39 8,3 C 93 % 1009,5 hPa 0,0 l/m 1,3 km/h (1 Bft) SO 135 0 min 0 W/m 7,2 C 8,3 C 1,3 km/h (1 Bft)
10.10.2009 18:45 8,4 C 93 % 1009,5 hPa 0,0 l/m 8,9 km/h (2 Bft) O 95 0 min 0 W/m 7,3 C 6,5 C 8,9 km/h (2 Bft)
10.10.2009 18:50 8,4 C 93 % 1009,5 hPa 0,0 l/m 11,1 km/h (2 Bft) SO 135 0 min 0 W/m 7,3 C 5,2 C 11,1 km/h (2 Bft)
10.10.2009 18:55 8,4 C 93 % 1009,5 hPa 0,0 l/m 9,6 km/h (2 Bft) O 85 0 min 0 W/m 7,3 C 6,1 C 9,6 km/h (2 Bft)
10.10.2009 19:00 8,4 C 93 % 1009,5 hPa 0,0 l/m 6,8 km/h (2 Bft) O-SO 115 0 min 0 W/m 7,3 C 8,1 C 6,8 km/h (2 Bft)
10.10.2009 19:05 8,4 C 93 % 1009,5 hPa 0,0 l/m 12,0 km/h (2 Bft) O 100 0 min 0 W/m 7,3 C 4,7 C 12,0 km/h (2 Bft)
10.10.2009 19:10 8,4 C 93 % 1009,5 hPa 0,0 l/m 8,3 km/h (2 Bft) O-SO 105 0 min 0 W/m 7,3 C 7,0 C 8,3 km/h (2 Bft)
10.10.2009 19:15 8,4 C 93 % 1009,5 hPa 0,0 l/m 7,0 km/h (2 Bft) O-NO 60 0 min 0 W/m 7,3 C 7,9 C 7,0 km/h (2 Bft)
10.10.2009 19:20 8,4 C 93 % 1009,5 hPa 0,0 l/m 7,3 km/h (2 Bft) O 90 0 min 0 W/m 7,3 C 7,7 C 7,3 km/h (2 Bft)
10.10.2009 19:25 8,4 C 93 % 1009,5 hPa 0,0 l/m 9,8 km/h (2 Bft) O-NO 70 0 min 0 W/m 7,3 C 6,0 C 9,8 km/h (2 Bft)
10.10.2009 19:30 8,4 C 93 % 1009,5 hPa 0,0 l/m 14,9 km/h (3 Bft) O 90 0 min 0 W/m 7,3 C 3,2 C 14,9 km/h (3 Bft)
10.10.2009 19:35 8,3 C 93 % 1009,5 hPa 0,3 l/m 12,5 km/h (2 Bft) O 100 0 min 0 W/m 7,2 C 4,3 C 12,5 km/h (2 Bft)
10.10.2009 19:40 8,4 C 93 % 1009,5 hPa 0,0 l/m 6,3 km/h (2 Bft) SO 125 0 min 0 W/m 7,3 C 8,4 C 6,3 km/h (2 Bft)
10.10.2009 19:45 8,4 C 93 % 1009,5 hPa 0,0 l/m 8,5 km/h (2 Bft) O 80 0 min 0 W/m 7,3 C 6,8 C 8,5 km/h (2 Bft)
10.10.2009 19:50 8,4 C 93 % 1009,5 hPa 0,0 l/m 10,6 km/h (2 Bft) O 95 0 min 0 W/m 7,3 C 5,5 C 10,6 km/h (2 Bft)
10.10.2009 19:55 8,4 C 93 % 1009,5 hPa 0,0 l/m 8,0 km/h (2 Bft) O-NO 75 0 min 0 W/m 7,3 C 7,2 C 8,0 km/h (2 Bft)
10.10.2009 20:00 8,4 C 93 % 1009,5 hPa 0,0 l/m 13,1 km/h (3 Bft) NO 55 0 min 0 W/m 7,3 C 4,1 C 13,1 km/h (3 Bft)
10.10.2009 20:05 8,4 C 93 % 1009,5 hPa 0,0 l/m 8,6 km/h (2 Bft) O 80 0 min 0 W/m 7,3 C 6,7 C 8,6 km/h (2 Bft)
10.10.2009 20:10 8,4 C 93 % 1009,5 hPa 0,0 l/m 2,6 km/h (1 Bft) NO 35 0 min 0 W/m 7,3 C 8,4 C 2,6 km/h (1 Bft)
10.10.2009 20:15 8,4 C 93 % 1009,5 hPa 0,0 l/m 2,2 km/h (1 Bft) O-SO 105 0 min 0 W/m 7,3 C 8,4 C 2,2 km/h (1 Bft)
10.10.2009 20:20 8,4 C 93 % 1010,5 hPa 0,0 l/m 4,0 km/h (1 Bft) O-SO 105 0 min 0 W/m 7,3 C 8,4 C 4,0 km/h (1 Bft)
10.10.2009 20:25 8,4 C 93 % 1010,5 hPa 0,0 l/m 4,0 km/h (1 Bft) O-SO 105 0 min 0 W/m 7,3 C 8,4 C 4,0 km/h (1 Bft)
10.10.2009 20:30 8,5 C 93 % 1010,5 hPa 0,0 l/m 4,8 km/h (1 Bft) O 85 0 min 0 W/m 7,4 C 8,5 C 4,8 km/h (1 Bft)
10.10.2009 20:35 8,5 C 93 % 1010,5 hPa 0,0 l/m 4,8 km/h (1 Bft) O 85 0 min 0 W/m 7,4 C 8,5 C 4,8 km/h (1 Bft)
10.10.2009 20:40 8,5 C 93 % 1010,5 hPa 0,0 l/m 4,8 km/h (1 Bft) O 85 0 min 0 W/m 7,4 C 8,5 C 4,8 km/h (1 Bft)
10.10.2009 20:45 8,5 C 93 % 1010,5 hPa 0,0 l/m 5,6 km/h (2 Bft) SO 135 0 min 0 W/m 7,4 C 8,5 C 5,6 km/h (2 Bft)
10.10.2009 20:50 8,5 C 93 % 1010,5 hPa 0,0 l/m 5,6 km/h (2 Bft) O 95 0 min 0 W/m 7,4 C 8,5 C 5,6 km/h (2 Bft)
10.10.2009 20:55 8,5 C 93 % 1010,5 hPa 0,0 l/m 0,3 km/h (0 Bft) O-SO 115 0 min 0 W/m 7,4 C 8,5 C 0,3 km/h (0 Bft)
10.10.2009 21:00 8,5 C 93 % 1010,5 hPa 0,0 l/m 0,3 km/h (0 Bft) O-SO 115 0 min 0 W/m 7,4 C 8,5 C 0,3 km/h (0 Bft)
10.10.2009 21:05 8,5 C 93 % 1010,5 hPa 0,0 l/m 0,0 km/h (0 Bft) O-NO 70 0 min 0 W/m 7,4 C 8,5 C 0,0 km/h (0 Bft)
10.10.2009 21:10 8,5 C 93 % 1010,5 hPa 0,0 l/m 2,8 km/h (1 Bft) O-SO 105 0 min 0 W/m 7,4 C 8,5 C 2,8 km/h (1 Bft)
10.10.2009 21:15 8,5 C 93 % 1010,5 hPa 0,0 l/m 2,8 km/h (1 Bft) O-SO 105 0 min 0 W/m 7,4 C 8,5 C 2,8 km/h (1 Bft)
10.10.2009 21:20 8,5 C 93 % 1010,5 hPa 0,0 l/m 0,4 km/h (0 Bft) S-SO 165 0 min 0 W/m 7,4 C 8,5 C 0,4 km/h (0 Bft)
10.10.2009 21:25 8,5 C 93 % 1010,5 hPa 0,0 l/m 0,0 km/h (0 Bft) S-SO 160 0 min 0 W/m 7,4 C 8,5 C 0,0 km/h (0 Bft)
10.10.2009 21:30 8,5 C 93 % 1010,5 hPa 0,0 l/m 0,0 km/h (0 Bft) S-SO 160 0 min 0 W/m 7,4 C 8,5 C 0,0 km/h (0 Bft)
10.10.2009 21:35 8,6 C 93 % 1010,5 hPa 0,0 l/m 0,6 km/h (0 Bft) S-SO 160 0 min 0 W/m 7,5 C 8,6 C 0,6 km/h (0 Bft)
10.10.2009 21:40 8,6 C 93 % 1010,5 hPa 0,0 l/m 2,0 km/h (1 Bft) S-SO 160 0 min 0 W/m 7,5 C 8,6 C 2,0 km/h (1 Bft)
10.10.2009 21:45 8,6 C 93 % 1010,5 hPa 0,0 l/m 2,0 km/h (1 Bft) S-SO 160 0 min 0 W/m 7,5 C 8,6 C 2,0 km/h (1 Bft)
10.10.2009 21:50 8,6 C 93 % 1010,5 hPa 0,0 l/m 2,0 km/h (1 Bft) S-SO 160 0 min 0 W/m 7,5 C 8,6 C 2,0 km/h (1 Bft)
10.10.2009 21:55 8,6 C 93 % 1010,5 hPa 0,0 l/m 2,0 km/h (1 Bft) S-SO 160 0 min 0 W/m 7,5 C 8,6 C 2,0 km/h (1 Bft)
10.10.2009 22:00 8,6 C 93 % 1010,5 hPa 0,0 l/m 2,0 km/h (1 Bft) S-SO 160 0 min 0 W/m 7,5 C 8,6 C 2,0 km/h (1 Bft)
10.10.2009 22:05 8,5 C 93 % 1010,5 hPa 0,0 l/m 1,3 km/h (1 Bft) NO 35 0 min 0 W/m 7,4 C 8,5 C 1,3 km/h (1 Bft)
10.10.2009 22:10 8,6 C 93 % 1010,5 hPa 0,0 l/m 3,9 km/h (1 Bft) N-NO 25 0 min 0 W/m 7,5 C 8,6 C 3,9 km/h (1 Bft)
10.10.2009 22:15 8,6 C 93 % 1010,5 hPa 0,0 l/m 3,9 km/h (1 Bft) N-NO 25 0 min 0 W/m 7,5 C 8,6 C 3,9 km/h (1 Bft)
10.10.2009 22:20 8,6 C 93 % 1010,5 hPa 0,0 l/m 0,6 km/h (0 Bft) N-NO 30 0 min 0 W/m 7,5 C 8,6 C 0,6 km/h (0 Bft)
10.10.2009 22:25 8,6 C 93 % 1010,5 hPa 0,0 l/m 0,6 km/h (0 Bft) N-NO 30 0 min 0 W/m 7,5 C 8,6 C 0,6 km/h (0 Bft)
10.10.2009 22:30 8,6 C 93 % 1010,5 hPa 0,0 l/m 0,2 km/h (0 Bft) O-NO 70 0 min 0 W/m 7,5 C 8,6 C 0,2 km/h (0 Bft)
10.10.2009 22:35 8,6 C 93 % 1010,5 hPa 0,0 l/m 0,1 km/h (0 Bft) NO 50 0 min 0 W/m 7,5 C 8,6 C 0,1 km/h (0 Bft)
10.10.2009 22:40 8,6 C 93 % 1010,5 hPa 0,0 l/m 0,1 km/h (0 Bft) O-NO 70 0 min 0 W/m 7,5 C 8,6 C 0,1 km/h (0 Bft)
10.10.2009 22:45 8,6 C 93 % 1010,5 hPa 0,0 l/m 0,1 km/h (0 Bft) N-NO 15 0 min 0 W/m 7,5 C 8,6 C 0,1 km/h (0 Bft)
10.10.2009 22:50 8,6 C 93 % 1010,5 hPa 0,0 l/m 0,1 km/h (0 Bft) N-NO 15 0 min 0 W/m 7,5 C 8,6 C 0,1 km/h (0 Bft)
10.10.2009 22:55 8,6 C 93 % 1010,5 hPa 0,0 l/m 0,1 km/h (0 Bft) N-NO 15 0 min 0 W/m 7,5 C 8,6 C 0,1 km/h (0 Bft)
10.10.2009 23:00 8,6 C 93 % 1010,5 hPa 0,0 l/m 0,0 km/h (0 Bft) N-NO 15 0 min 0 W/m 7,5 C 8,6 C 0,0 km/h (0 Bft)
10.10.2009 23:05 8,6 C 93 % 1010,5 hPa 0,0 l/m 0,0 km/h (0 Bft) N-NO 15 0 min 0 W/m 7,5 C 8,6 C 0,0 km/h (0 Bft)
10.10.2009 23:10 8,6 C 93 % 1010,5 hPa 0,0 l/m 0,1 km/h (0 Bft) N-NO 20 0 min 0 W/m 7,5 C 8,6 C 0,1 km/h (0 Bft)
10.10.2009 23:15 8,7 C 93 % 1010,5 hPa 0,0 l/m 0,1 km/h (0 Bft) N-NO 20 0 min 0 W/m 7,6 C 8,7 C 0,1 km/h (0 Bft)
10.10.2009 23:20 8,7 C 93 % 1010,5 hPa 0,0 l/m 0,0 km/h (0 Bft) N-NO 30 0 min 0 W/m 7,6 C 8,7 C 0,0 km/h (0 Bft)
10.10.2009 23:25 8,7 C 93 % 1010,5 hPa 0,0 l/m 5,9 km/h (2 Bft) NO 45 0 min 0 W/m 7,6 C 8,7 C 5,9 km/h (2 Bft)
10.10.2009 23:30 8,7 C 93 % 1010,5 hPa 0,0 l/m 5,9 km/h (2 Bft) NO 45 0 min 0 W/m 7,6 C 8,7 C 5,9 km/h (2 Bft)
10.10.2009 23:35 8,7 C 93 % 1010,5 hPa 0,0 l/m 5,6 km/h (2 Bft) O-NO 65 0 min 0 W/m 7,6 C 8,7 C 5,6 km/h (2 Bft)
10.10.2009 23:40 8,7 C 93 % 1010,5 hPa 0,0 l/m 4,0 km/h (1 Bft) N-NO 25 0 min 0 W/m 7,6 C 8,7 C 4,0 km/h (1 Bft)
10.10.2009 23:45 8,7 C 93 % 1010,5 hPa 0,0 l/m 7,0 km/h (2 Bft) N-NO 15 0 min 0 W/m 7,6 C 8,2 C 7,0 km/h (2 Bft)
10.10.2009 23:50 8,6 C 93 % 1010,5 hPa 0,0 l/m 0,6 km/h (0 Bft) NO 40 0 min 0 W/m 7,5 C 8,6 C 0,6 km/h (0 Bft)
10.10.2009 23:55 8,7 C 93 % 1010,5 hPa 0,0 l/m 4,8 km/h (1 Bft) N-NO 25 0 min 0 W/m 7,6 C 8,7 C 4,8 km/h (1 Bft)
_ Min-Zeit 05:25 04:15 12:05 - 21:05 - - - - 05:25 06:15 21:05
Minimum _ 6,8 C 78 % 1009,5 hPa - 0,0 km/h (0 Bft) - - - - 3,6 C -3,6 C 0,0 km/h (0 Bft)
_ Max-Zeit 08:55 17:55 00:00 12:00 06:15 - - 00:00 00:00 23:15 23:15 06:15
Maximum _ 9,2 C 93 % 1018,5 hPa 0,3 l/m 31,2 km/h
SO (5 Bft)
- - 0 min 0 W/m 7,6 C 8,7 C 31,2 km/h
S-SO (5 Bft)
Durchschnitt _ 7,8 C 86 % 1011,6 hPa #3,9 l/m 13,5 km/h (3 Bft) SO - #0 min. 0 W/m 5,6 C 3,3 C 13,5 km/h (3 Bft)
copyright by Holger Just